Time;durP1;ratioP1;P1;durP2;ratioP2;P2;SDS_P1;SDS_P2;PMS_P1;PMS_P2;Temp;Humidity;BMP_temperature;BMP_pressure;BME280_temperature;BME280_humidity;BME280_pressure;Samples;Min_cycle;Max_cycle;Signal;HPM_P1;HPM_P2
2022/12/31 00:01:39;;;;;;;5.70;1.80;;;;;;;;;;5040994;28;20047;-62
2022/12/31 00:04:09;;;;;;;4.72;1.60;;;;;;;;;;5074499;28;20052;-63
2022/12/31 00:06:38;;;;;;;6.63;1.77;;;;;;;;;;5040949;28;20056;-62
2022/12/31 00:09:10;;;;;;;6.30;1.92;;;;;;;;;;5070581;28;20539;-63
2022/12/31 00:11:39;;;;;;;8.50;2.20;;;;;;;;;;5070622;28;20061;-62
2022/12/31 00:14:09;;;;;;;11.13;2.30;;;;;;;;;;5070887;28;20049;-63
2022/12/31 00:16:40;;;;;;;6.50;1.98;;;;;;;;;;5070732;28;20056;-62
2022/12/31 00:19:11;;;;;;;6.20;2.30;;;;;;;;;;5053056;28;20061;-62
2022/12/31 00:21:42;;;;;;;9.88;2.15;;;;;;;;;;5030700;28;20529;-62
2022/12/31 00:24:12;;;;;;;4.65;2.00;;;;;;;;;;5014505;28;20065;-62
2022/12/31 00:26:42;;;;;;;4.47;2.10;;;;;;;;;;4997727;28;20061;-62
2022/12/31 00:29:11;;;;;;;5.55;1.90;;;;;;;;;;5030904;28;20057;-62
2022/12/31 00:31:41;;;;;;;7.43;2.00;;;;;;;;;;5030665;28;20493;-63
2022/12/31 00:34:12;;;;;;;5.07;2.25;;;;;;;;;;5030702;28;20080;-62
2022/12/31 00:36:41;;;;;;;4.75;1.90;;;;;;;;;;5013653;28;20090;-61
2022/12/31 00:39:12;;;;;;;5.95;2.10;;;;;;;;;;5032868;28;20045;-61
2022/12/31 00:41:42;;;;;;;16.17;2.55;;;;;;;;;;5070041;28;20431;-62
2022/12/31 00:44:12;;;;;;;5.65;2.00;;;;;;;;;;5070298;28;20045;-61
2022/12/31 00:46:41;;;;;;;6.15;1.90;;;;;;;;;;5070944;28;20064;-62
2022/12/31 00:49:09;;;;;;;5.18;1.90;;;;;;;;;;5076612;28;20040;-63
2022/12/31 00:51:39;;;;;;;5.43;1.98;;;;;;;;;;5092562;28;20419;-61
2022/12/31 00:54:09;;;;;;;5.15;1.90;;;;;;;;;;5092844;28;20032;-62
2022/12/31 00:56:38;;;;;;;6.03;2.20;;;;;;;;;;5092715;28;20047;-62
2022/12/31 00:59:08;;;;;;;7.35;2.20;;;;;;;;;;5057025;28;20051;-61
2022/12/31 01:01:39;;;;;;;6.57;2.10;;;;;;;;;;5016494;28;20041;-63
2022/12/31 01:04:13;;;;;;;3.70;1.88;;;;;;;;;;5049985;28;20448;-61
2022/12/31 01:06:43;;;;;;;4.40;2.10;;;;;;;;;;5049944;28;20056;-62
2022/12/31 01:09:15;;;;;;;6.57;1.92;;;;;;;;;;5048568;28;20464;-61
2022/12/31 01:11:45;;;;;;;;;;;;;;;;;;5033319;28;20060;-61
2022/12/31 01:14:18;;;;;;;14.32;2.40;;;;;;;;;;5049969;28;19999;-61
2022/12/31 01:16:52;;;;;;;10.98;2.35;;;;;;;;;;5049886;28;20539;-61
2022/12/31 01:19:25;;;;;;;8.32;2.13;;;;;;;;;;5049864;28;20061;-61
2022/12/31 01:21:56;;;;;;;5.55;1.92;;;;;;;;;;5049448;28;20056;-61
2022/12/31 01:24:26;;;;;;;5.65;2.00;;;;;;;;;;5049697;28;20045;-61
2022/12/31 01:26:56;;;;;;;6.80;2.28;;;;;;;;;;5016265;28;20057;-62
2022/12/31 01:29:26;;;;;;;6.78;2.45;;;;;;;;;;5049597;28;20149;-62
2022/12/31 01:31:56;;;;;;;6.32;2.10;;;;;;;;;;5049397;28;20068;-62
2022/12/31 01:34:25;;;;;;;6.55;2.33;;;;;;;;;;5049599;28;20068;-62
2022/12/31 01:36:56;;;;;;;9.02;2.38;;;;;;;;;;5016098;28;20064;-62
2022/12/31 01:39:25;;;;;;;5.22;2.05;;;;;;;;;;5073660;28;20415;-62
2022/12/31 01:41:54;;;;;;;7.03;2.30;;;;;;;;;;5091874;28;20052;-62
2022/12/31 01:44:27;;;;;;;6.18;2.20;;;;;;;;;;5091822;28;20674;-62
2022/12/31 01:47:00;;;;;;;4.43;2.25;;;;;;;;;;5049038;28;20045;-62
2022/12/31 01:49:38;;;;;;;5.65;2.17;;;;;;;;;;5049186;28;20086;-62
2022/12/31 01:52:14;;;;;;;8.43;2.22;;;;;;;;;;5049017;28;20048;-62
2022/12/31 01:54:49;;;;;;;4.68;2.05;;;;;;;;;;5016596;28;20064;-62
2022/12/31 01:57:20;;;;;;;6.53;2.38;;;;;;;;;;4999843;28;20057;-62
2022/12/31 01:59:50;;;;;;;4.85;2.22;;;;;;;;;;5049047;28;20056;-62
2022/12/31 02:02:21;;;;;;;7.43;2.35;;;;;;;;;;5032111;28;20048;-62
2022/12/31 02:04:54;;;;;;;7.20;2.70;;;;;;;;;;5049120;28;20417;-62
2022/12/31 02:07:24;;;;;;;4.75;2.08;;;;;;;;;;5049189;28;20185;-62
2022/12/31 02:09:53;;;;;;;8.65;2.17;;;;;;;;;;5049273;28;20484;-62
2022/12/31 02:12:23;;;;;;;7.72;2.70;;;;;;;;;;5048997;28;20505;-62
2022/12/31 02:14:54;;;;;;;4.30;2.25;;;;;;;;;;4983584;28;20064;-61
2022/12/31 02:17:34;;;;;;;4.25;2.53;;;;;;;;;;5049185;28;20056;-61
2022/12/31 02:20:41;;;;;;;4.22;2.10;;;;;;;;;;5050283;28;20057;-62
2022/12/31 02:23:40;;;;;;;5.28;1.90;;;;;;;;;;5003632;28;20056;-62
2022/12/31 02:26:41;;;;;;;6.15;2.13;;;;;;;;;;5052671;28;20057;-62
2022/12/31 02:29:22;;;;;;;5.57;2.30;;;;;;;;;;5069311;28;20056;-62
2022/12/31 02:32:04;;;;;;;6.43;2.40;;;;;;;;;;5053063;28;20052;-62
2022/12/31 02:34:43;;;;;;;6.60;2.60;;;;;;;;;;5002798;28;20061;-61
2022/12/31 02:37:15;;;;;;;9.27;2.15;;;;;;;;;;5052521;28;20049;-62
2022/12/31 02:39:46;;;;;;;5.55;2.20;;;;;;;;;;5019628;28;20048;-62
2022/12/31 02:42:17;;;;;;;10.02;2.85;;;;;;;;;;5077573;28;20043;-62
2022/12/31 02:44:46;;;;;;;8.65;2.75;;;;;;;;;;5052103;28;20532;-61
2022/12/31 02:47:37;;;;;;;5.30;2.10;;;;;;;;;;5002735;28;20057;-62
2022/12/31 02:50:20;;;;;;;6.90;2.13;;;;;;;;;;5052410;28;20519;-61
2022/12/31 02:53:12;;;;;;;4.10;2.22;;;;;;;;;;5052452;28;20041;-61
2022/12/31 02:56:07;;;;;;;5.55;2.05;;;;;;;;;;5002987;28;20057;-62
2022/12/31 03:04:40;;;;;;;6.35;2.85;;;;;;;;;;4988977;28;21137;-61
2022/12/31 03:07:16;;;;;;;4.57;2.53;;;;;;;;;;5052262;28;20531;-61
2022/12/31 03:09:46;;;;;;;5.78;2.60;;;;;;;;;;5031771;28;20057;-61
2022/12/31 03:15:18;;;;;;;6.18;2.35;;;;;;;;;;4966597;28;20053;-62
2022/12/31 03:18:12;;;;;;;5.13;2.30;;;;;;;;;;4998871;28;20484;-62
2022/12/31 03:23:38;;;;;;;7.22;2.00;;;;;;;;;;5038176;28;20059;-61
2022/12/31 03:26:11;;;;;;;7.40;2.13;;;;;;;;;;5038435;28;20064;-61
2022/12/31 03:28:46;;;;;;;7.10;2.67;;;;;;;;;;5039023;28;20123;-61
2022/12/31 03:31:18;;;;;;;8.82;2.63;;;;;;;;;;5004257;28;20045;-62
2022/12/31 03:33:48;;;;;;;6.63;2.92;;;;;;;;;;5051357;28;20060;-61
2022/12/31 03:36:17;;;;;;;6.55;2.83;;;;;;;;;;5018265;28;20493;-62
2022/12/31 03:38:47;;;;;;;9.98;2.53;;;;;;;;;;5051458;28;20057;-61
2022/12/31 03:41:20;;;;;;;6.88;2.88;;;;;;;;;;5051469;28;20412;-61
2022/12/31 03:43:49;;;;;;;5.60;2.78;;;;;;;;;;5001852;28;20064;-61
2022/12/31 03:46:19;;;;;;;6.07;2.92;;;;;;;;;;5034592;28;20049;-62
2022/12/31 03:48:48;;;;;;;6.07;2.92;;;;;;;;;;5017894;28;20063;-62
2022/12/31 03:51:18;;;;;;;7.18;2.58;;;;;;;;;;5051547;28;20056;-61
2022/12/31 03:53:47;;;;;;;10.02;2.90;;;;;;;;;;5034359;28;20064;-61
2022/12/31 03:56:17;;;;;;;7.53;3.05;;;;;;;;;;5051423;28;20060;-61
2022/12/31 03:58:46;;;;;;;9.80;3.22;;;;;;;;;;5051170;28;20499;-62
2022/12/31 04:01:15;;;;;;;10.13;4.65;;;;;;;;;;5001785;28;20097;-62
2022/12/31 04:03:46;;;;;;;8.00;2.90;;;;;;;;;;5034382;28;20057;-61
2022/12/31 04:06:15;;;;;;;6.93;2.75;;;;;;;;;;5051277;28;20516;-61
2022/12/31 04:08:45;;;;;;;9.07;3.28;;;;;;;;;;5050944;28;20045;-62
2022/12/31 04:11:14;;;;;;;6.40;2.72;;;;;;;;;;5069540;28;20056;-61
2022/12/31 04:13:48;;;;;;;11.70;3.08;;;;;;;;;;5093471;28;20043;-61
2022/12/31 04:16:18;;;;;;;5.88;2.42;;;;;;;;;;5057902;28;20079;-62
2022/12/31 04:18:47;;;;;;;6.35;2.85;;;;;;;;;;5093095;28;20048;-62
2022/12/31 04:21:17;;;;;;;9.93;2.85;;;;;;;;;;5050305;28;20053;-62
2022/12/31 04:23:46;;;;;;;8.27;2.85;;;;;;;;;;5030399;28;20053;-61
2022/12/31 04:26:15;;;;;;;7.15;3.00;;;;;;;;;;4981430;28;20045;-62
2022/12/31 04:28:45;;;;;;;8.65;3.08;;;;;;;;;;5030611;28;20064;-61
2022/12/31 04:31:14;;;;;;;7.65;2.95;;;;;;;;;;5030682;28;20444;-62
2022/12/31 04:33:44;;;;;;;5.88;2.80;;;;;;;;;;4998225;28;20061;-61
2022/12/31 04:36:13;;;;;;;7.85;2.80;;;;;;;;;;5030532;28;20057;-62
2022/12/31 04:38:42;;;;;;;8.30;2.72;;;;;;;;;;5013912;28;20057;-62
2022/12/31 04:41:19;;;;;;;5.82;3.03;;;;;;;;;;5030662;28;20064;-61
2022/12/31 04:43:52;;;;;;;10.82;3.22;;;;;;;;;;4977755;28;20116;-62
2022/12/31 04:46:32;;;;;;;9.68;2.92;;;;;;;;;;5010512;28;20498;-62
2022/12/31 04:49:02;;;;;;;6.82;2.75;;;;;;;;;;5010496;28;20062;-62
2022/12/31 04:51:32;;;;;;;10.88;3.10;;;;;;;;;;4942402;28;20375;-61
2022/12/31 04:54:02;;;;;;;4.68;2.35;;;;;;;;;;4958323;28;20553;-62
2022/12/31 04:56:35;;;;;;;6.85;2.92;;;;;;;;;;4958735;28;20065;-62
2022/12/31 04:59:06;;;;;;;5.80;2.58;;;;;;;;;;5001882;28;20081;-62
2022/12/31 05:01:35;;;;;;;6.43;2.88;;;;;;;;;;5010523;28;20065;-62
2022/12/31 05:04:05;;;;;;;6.85;2.47;;;;;;;;;;5010512;28;20065;-65
2022/12/31 05:06:35;;;;;;;8.38;2.90;;;;;;;;;;4961753;28;20058;-62
2022/12/31 05:09:04;;;;;;;8.43;2.67;;;;;;;;;;5010310;28;20062;-62
2022/12/31 05:11:34;;;;;;;6.65;2.70;;;;;;;;;;4977603;28;20442;-62
2022/12/31 05:14:04;;;;;;;6.88;2.65;;;;;;;;;;5014893;28;20061;-62
2022/12/31 05:16:33;;;;;;;8.27;3.10;;;;;;;;;;5049794;28;20226;-64
2022/12/31 05:19:05;;;;;;;6.53;2.22;;;;;;;;;;5033551;28;20072;-62
2022/12/31 05:21:35;;;;;;;5.75;2.60;;;;;;;;;;5049884;28;20064;-62
2022/12/31 05:24:05;;;;;;;7.90;2.35;;;;;;;;;;5049573;28;20056;-62
2022/12/31 05:26:34;;;;;;;8.98;2.35;;;;;;;;;;5049831;28;20037;-62
2022/12/31 05:29:04;;;;;;;7.53;2.40;;;;;;;;;;5060001;28;20057;-62
2022/12/31 05:31:33;;;;;;;6.57;2.60;;;;;;;;;;5071895;28;20051;-62
2022/12/31 05:34:03;;;;;;;7.82;2.42;;;;;;;;;;5071890;28;20484;-62
2022/12/31 05:36:32;;;;;;;7.53;2.78;;;;;;;;;;5071529;28;20044;-64
2022/12/31 05:39:02;;;;;;;7.68;3.03;;;;;;;;;;5071936;28;20045;-61
2022/12/31 05:41:31;;;;;;;8.48;3.53;;;;;;;;;;5071750;28;20044;-62
2022/12/31 05:44:00;;;;;;;7.18;2.97;;;;;;;;;;5053064;28;20060;-62
2022/12/31 05:46:30;;;;;;;6.13;2.58;;;;;;;;;;5071393;28;20055;-62
2022/12/31 05:49:00;;;;;;;8.18;2.90;;;;;;;;;;5074024;28;20048;-62
2022/12/31 05:51:29;;;;;;;6.88;2.25;;;;;;;;;;5091821;28;20048;-61
2022/12/31 05:53:58;;;;;;;7.53;2.83;;;;;;;;;;5091669;28;20048;-62
2022/12/31 05:56:28;;;;;;;6.13;2.85;;;;;;;;;;5091443;28;20059;-62
2022/12/31 05:58:57;;;;;;;6.28;2.67;;;;;;;;;;5091617;28;20044;-61
2022/12/31 06:01:27;;;;;;;7.40;2.95;;;;;;;;;;5073812;28;20048;-61
2022/12/31 06:03:56;;;;;;;7.18;3.15;;;;;;;;;;5091801;28;20494;-62
2022/12/31 06:06:26;;;;;;;7.28;2.55;;;;;;;;;;5073016;28;20067;-61
2022/12/31 06:08:55;;;;;;;7.22;2.83;;;;;;;;;;5091816;28;20060;-61
2022/12/31 06:11:24;;;;;;;8.35;3.65;;;;;;;;;;5039665;28;20056;-62
2022/12/31 06:13:54;;;;;;;8.93;3.47;;;;;;;;;;5091852;28;20048;-62
2022/12/31 06:16:24;;;;;;;7.68;3.08;;;;;;;;;;5055932;28;20048;-61
2022/12/31 06:18:54;;;;;;;6.90;3.33;;;;;;;;;;5092050;28;20047;-62
2022/12/31 06:21:23;;;;;;;7.90;2.85;;;;;;;;;;5091574;28;20427;-61
2022/12/31 06:23:53;;;;;;;6.22;2.80;;;;;;;;;;5091780;28;20048;-61
2022/12/31 06:26:22;;;;;;;6.63;3.10;;;;;;;;;;5091436;28;20040;-62
2022/12/31 06:28:51;;;;;;;8.45;2.67;;;;;;;;;;5091650;28;20044;-61
2022/12/31 06:31:21;;;;;;;7.70;2.78;;;;;;;;;;5091734;28;20048;-62
2022/12/31 06:33:51;;;;;;;8.25;2.60;;;;;;;;;;5007257;28;20064;-61
2022/12/31 06:36:21;;;;;;;8.85;3.08;;;;;;;;;;5091686;28;20498;-62
2022/12/31 06:38:50;;;;;;;6.60;3.20;;;;;;;;;;5091296;28;20051;-62
2022/12/31 06:41:21;;;;;;;11.15;3.25;;;;;;;;;;5091794;28;20051;-62
2022/12/31 06:43:50;;;;;;;7.07;2.80;;;;;;;;;;5091281;28;20044;-62
2022/12/31 06:46:20;;;;;;;8.57;2.70;;;;;;;;;;5091223;28;20047;-61
2022/12/31 06:48:49;;;;;;;7.68;2.80;;;;;;;;;;5091357;28;20044;-63
2022/12/31 06:51:21;;;;;;;9.65;2.80;;;;;;;;;;5091478;28;20048;-62
2022/12/31 06:53:51;;;;;;;8.82;2.60;;;;;;;;;;5091012;28;20067;-62
2022/12/31 06:56:24;;;;;;;6.97;2.53;;;;;;;;;;5068581;28;20056;-62
2022/12/31 06:59:02;;;;;;;7.88;2.38;;;;;;;;;;5035241;28;20078;-61
2022/12/31 07:02:15;;;;;;;7.88;2.60;;;;;;;;;;5048573;28;20205;-62
2022/12/31 07:04:58;;;;;;;8.60;2.40;;;;;;;;;;5015639;28;20052;-62
2022/12/31 07:07:45;;;;;;;10.43;2.80;;;;;;;;;;5000700;28;20052;-61
2022/12/31 07:11:03;;;;;;;6.47;2.65;;;;;;;;;;5052023;28;20037;-62
2022/12/31 07:13:55;;;;;;;8.90;2.63;;;;;;;;;;5012495;28;20065;-61
2022/12/31 07:16:25;;;;;;;7.88;2.75;;;;;;;;;;4979458;28;20046;-61
2022/12/31 07:19:01;;;;;;;5.18;2.30;;;;;;;;;;5012469;28;20090;-61
2022/12/31 07:21:38;;;;;;;7.88;2.72;;;;;;;;;;4973165;28;20062;-61
2022/12/31 07:24:09;;;;;;;5.40;2.70;;;;;;;;;;4953454;29;20055;-62
2022/12/31 07:27:07;;;;;;;6.55;2.60;;;;;;;;;;4908938;28;20054;-61
2022/12/31 07:29:48;;;;;;;6.45;2.40;;;;;;;;;;4973070;28;20101;-61
2022/12/31 07:32:40;;;;;;;4.93;2.15;;;;;;;;;;4918405;29;20543;-61
2022/12/31 07:35:23;;;;;;;;;;;;;;;;;;4934876;29;20455;-62
2022/12/31 07:38:02;;;;;;;6.00;2.50;;;;;;;;;;4934703;29;19930;-61
2022/12/31 07:40:59;;;;;;;10.90;2.55;;;;;;;;;;4934366;29;20157;-62
2022/12/31 07:43:47;;;;;;;5.43;2.40;;;;;;;;;;4934132;29;20763;-61
2022/12/31 07:46:55;;;;;;;6.78;2.40;;;;;;;;;;4934323;29;20063;-62
2022/12/31 07:49:26;;;;;;;5.53;2.20;;;;;;;;;;4849731;29;20053;-61
2022/12/31 07:51:57;;;;;;;5.53;2.80;;;;;;;;;;4896476;29;20053;-61
2022/12/31 07:54:27;;;;;;;9.38;2.50;;;;;;;;;;4896191;29;20096;-62
2022/12/31 07:56:57;;;;;;;6.38;2.33;;;;;;;;;;4896350;29;20068;-61
2022/12/31 07:59:41;;;;;;;5.60;2.55;;;;;;;;;;4880665;29;20060;-61
2022/12/31 08:02:52;;;;;;;7.07;2.50;;;;;;;;;;4905578;29;20053;-61
2022/12/31 08:05:33;;;;;;;8.43;2.40;;;;;;;;;;4911907;29;20460;-61
2022/12/31 08:08:03;;;;;;;5.47;2.47;;;;;;;;;;4911310;29;20079;-63
2022/12/31 08:10:45;;;;;;;12.70;3.20;;;;;;;;;;4922373;29;20067;-61
2022/12/31 08:13:17;;;;;;;7.20;2.72;;;;;;;;;;4953015;29;20067;-62
2022/12/31 08:15:47;;;;;;;10.40;2.75;;;;;;;;;;4952934;29;20054;-64
2022/12/31 08:18:16;;;;;;;9.35;2.58;;;;;;;;;;4952432;28;20060;-62
2022/12/31 08:21:02;;;;;;;8.27;2.58;;;;;;;;;;4952873;29;20051;-62
2022/12/31 08:24:04;;;;;;;6.40;2.72;;;;;;;;;;4952752;29;20086;-61
2022/12/31 08:26:55;;;;;;;6.07;2.28;;;;;;;;;;5070437;28;20064;-61
2022/12/31 08:29:25;;;;;;;5.07;2.22;;;;;;;;;;5020676;28;20593;-61
2022/12/31 08:32:09;;;;;;;4.03;2.10;;;;;;;;;;5070460;28;20060;-61
2022/12/31 08:35:05;;;;;;;5.55;2.30;;;;;;;;;;5070515;28;20052;-61
2022/12/31 08:37:42;;;;;;;4.25;2.22;;;;;;;;;;5030423;28;20057;-61
2022/12/31 08:40:24;;;;;;;5.30;2.35;;;;;;;;;;5014132;28;20046;-62
2022/12/31 08:43:19;;;;;;;4.53;2.38;;;;;;;;;;5030043;28;20041;-64
2022/12/31 08:45:52;;;;;;;8.30;3.00;;;;;;;;;;5030311;28;20065;-62
2022/12/31 08:48:29;;;;;;;5.78;2.30;;;;;;;;;;5029982;28;20053;-61
2022/12/31 08:50:59;;;;;;;7.07;2.67;;;;;;;;;;5030192;28;20054;-61
2022/12/31 08:53:29;;;;;;;4.75;2.63;;;;;;;;;;5030261;28;20041;-61
2022/12/31 08:56:09;;;;;;;5.80;2.67;;;;;;;;;;4997214;28;20061;-62
2022/12/31 08:59:17;;;;;;;7.40;2.72;;;;;;;;;;4984102;28;20559;-62
2022/12/31 09:02:17;;;;;;;5.60;2.35;;;;;;;;;;4901056;29;20355;-61
2022/12/31 09:05:07;;;;;;;7.93;2.72;;;;;;;;;;4879313;29;20063;-62
2022/12/31 09:07:42;;;;;;;10.75;2.78;;;;;;;;;;4894998;29;20056;-61
2022/12/31 09:10:24;;;;;;;6.55;2.92;;;;;;;;;;4894941;29;20067;-62
2022/12/31 09:13:03;;;;;;;7.15;2.90;;;;;;;;;;4894754;29;20072;-62
2022/12/31 09:15:48;;;;;;;6.90;2.50;;;;;;;;;;4958965;28;20062;-61
2022/12/31 09:18:18;;;;;;;;;;;;;;;;;;4920428;29;20081;-62
2022/12/31 09:20:47;;;;;;;6.85;2.45;;;;;;;;;;4975381;28;19922;-62
2022/12/31 09:23:17;;;;;;;6.20;2.88;;;;;;;;;;4958051;28;20442;-62
2022/12/31 09:25:55;;;;;;;7.60;2.63;;;;;;;;;;4943232;28;20426;-62
2022/12/31 09:28:59;;;;;;;8.07;3.33;;;;;;;;;;4990111;28;21266;-62
2022/12/31 09:31:35;;;;;;;8.98;4.03;;;;;;;;;;4910190;29;20397;-63
2022/12/31 09:34:22;;;;;;;7.18;3.67;;;;;;;;;;4895011;29;20539;-62
2022/12/31 09:37:02;;;;;;;10.55;3.80;;;;;;;;;;4875455;29;20049;-61
2022/12/31 09:39:43;;;;;;;9.30;3.63;;;;;;;;;;4923604;29;20059;-61
2022/12/31 09:42:28;;;;;;;10.75;4.15;;;;;;;;;;4932197;29;20071;-62
2022/12/31 09:45:27;;;;;;;7.70;3.47;;;;;;;;;;4932353;29;20048;-62
2022/12/31 09:48:11;;;;;;;6.35;2.97;;;;;;;;;;4856957;29;20069;-61
2022/12/31 09:51:30;;;;;;;7.40;3.47;;;;;;;;;;4856821;29;20054;-63
2022/12/31 09:54:08;;;;;;;7.38;2.80;;;;;;;;;;4820628;29;20058;-61
2022/12/31 09:56:45;;;;;;;10.10;2.92;;;;;;;;;;4790116;29;20526;-61
2022/12/31 09:59:28;;;;;;;6.25;3.42;;;;;;;;;;4820600;29;20073;-63
2022/12/31 10:02:10;;;;;;;9.38;3.50;;;;;;;;;;4820483;29;20527;-61
2022/12/31 10:05:17;;;;;;;9.68;3.63;;;;;;;;;;4820660;29;20078;-61
2022/12/31 10:07:58;;;;;;;8.55;3.95;;;;;;;;;;4844394;29;20075;-61
2022/12/31 10:10:45;;;;;;;9.60;3.97;;;;;;;;;;4913087;29;20190;-62
2022/12/31 10:13:38;;;;;;;9.88;4.28;;;;;;;;;;4866348;29;20068;-62
2022/12/31 10:16:15;;;;;;;7.40;3.65;;;;;;;;;;4897219;29;20060;-62
2022/12/31 10:19:32;;;;;;;8.75;3.65;;;;;;;;;;4894124;29;20060;-62
2022/12/31 10:22:36;;;;;;;11.60;3.20;;;;;;;;;;4857001;29;20046;-61
2022/12/31 10:25:07;;;;;;;6.75;2.92;;;;;;;;;;4860305;29;20443;-62
2022/12/31 10:27:50;;;;;;;9.85;3.70;;;;;;;;;;4884521;29;20059;-62
2022/12/31 10:30:22;;;;;;;7.25;3.45;;;;;;;;;;4931784;29;20056;-62
2022/12/31 10:33:17;;;;;;;7.10;3.17;;;;;;;;;;4916149;29;20059;-62
2022/12/31 10:36:02;;;;;;;7.28;3.78;;;;;;;;;;4912583;29;20063;-62
2022/12/31 10:39:04;;;;;;;8.05;3.45;;;;;;;;;;4912787;29;20052;-62
2022/12/31 10:41:57;;;;;;;7.15;2.67;;;;;;;;;;4858867;29;20068;-63
2022/12/31 10:44:50;;;;;;;6.68;2.92;;;;;;;;;;4859686;29;20045;-62
2022/12/31 10:47:40;;;;;;;6.28;2.58;;;;;;;;;;4860125;29;20061;-62
2022/12/31 10:50:38;;;;;;;5.38;2.05;;;;;;;;;;4859909;29;20061;-62
2022/12/31 10:53:28;;;;;;;4.60;1.77;;;;;;;;;;4860016;29;20064;-62
2022/12/31 10:56:35;;;;;;;4.78;2.08;;;;;;;;;;4871974;29;20067;-62
2022/12/31 10:59:41;;;;;;;4.97;2.25;;;;;;;;;;4897501;29;20055;-62
2022/12/31 11:02:47;;;;;;;5.00;1.83;;;;;;;;;;4880070;29;20059;-63
2022/12/31 11:05:47;;;;;;;6.28;2.58;;;;;;;;;;4954133;29;20055;-63
2022/12/31 11:08:41;;;;;;;5.15;1.75;;;;;;;;;;4944371;28;20042;-62
2022/12/31 11:11:50;;;;;;;4.53;1.70;;;;;;;;;;4992603;28;20088;-62
2022/12/31 11:14:46;;;;;;;2.95;1.70;;;;;;;;;;4941382;28;20062;-62
2022/12/31 11:17:22;;;;;;;3.90;1.50;;;;;;;;;;4943817;28;20050;-62
2022/12/31 11:20:27;;;;;;;4.30;1.48;;;;;;;;;;4963504;28;20512;-62
2022/12/31 11:23:23;;;;;;;3.60;1.50;;;;;;;;;;4972788;28;20059;-62
2022/12/31 11:26:25;;;;;;;5.07;1.77;;;;;;;;;;4973123;28;20053;-62
2022/12/31 11:29:33;;;;;;;3.58;1.58;;;;;;;;;;4921909;29;20177;-63
2022/12/31 11:32:35;;;;;;;2.97;1.70;;;;;;;;;;4880561;29;20059;-62
2022/12/31 11:35:22;;;;;;;4.82;1.73;;;;;;;;;;4843570;29;20568;-62
2022/12/31 11:38:29;;;;;;;3.42;1.00;;;;;;;;;;4859125;29;20411;-62
2022/12/31 11:41:06;;;;;;;2.50;1.20;;;;;;;;;;4807477;29;20058;-62
2022/12/31 11:43:59;;;;;;;4.00;1.27;;;;;;;;;;4792361;29;20089;-62
2022/12/31 11:46:44;;;;;;;2.88;1.15;;;;;;;;;;4785422;29;20591;-62
2022/12/31 11:49:39;;;;;;;4.43;2.45;;;;;;;;;;4770791;30;20055;-63
2022/12/31 11:52:40;;;;;;;4.60;1.50;;;;;;;;;;4742494;30;20086;-62
2022/12/31 11:55:25;;;;;;;2.83;1.25;;;;;;;;;;4741373;30;20062;-61
2022/12/31 11:57:54;;;;;;;3.47;1.33;;;;;;;;;;4756461;30;20054;-60
2022/12/31 12:00:24;;;;;;;2.70;1.20;;;;;;;;;;4772191;30;20059;-59
2022/12/31 12:03:02;;;;;;;5.68;1.52;;;;;;;;;;4753142;30;20055;-60
2022/12/31 12:05:34;;;;;;;2.65;1.00;;;;;;;;;;4786203;29;20057;-60
2022/12/31 12:08:04;;;;;;;2.67;1.00;;;;;;;;;;4856176;29;20080;-60
2022/12/31 12:10:47;;;;;;;3.55;1.17;;;;;;;;;;4930798;29;20064;-60
2022/12/31 12:13:17;;;;;;;1.98;1.10;;;;;;;;;;4969322;28;20058;-60
2022/12/31 12:15:53;;;;;;;5.22;1.88;;;;;;;;;;4972440;28;20046;-60
2022/12/31 12:18:39;;;;;;;4.13;1.10;;;;;;;;;;5027725;28;20052;-59
2022/12/31 12:21:16;;;;;;;6.07;2.75;;;;;;;;;;5057773;28;20063;-59
2022/12/31 12:24:02;;;;;;;3.45;1.20;;;;;;;;;;5057859;28;20044;-59
2022/12/31 12:26:36;;;;;;;3.53;1.00;;;;;;;;;;5093251;28;20048;-60
2022/12/31 12:29:15;;;;;;;2.00;1.10;;;;;;;;;;5041408;28;20059;-61
2022/12/31 12:32:23;;;;;;;2.25;1.10;;;;;;;;;;5093232;28;20396;-60
2022/12/31 12:34:53;;;;;;;4.60;2.22;;;;;;;;;;5007520;28;20054;-61
2022/12/31 12:37:31;;;;;;;6.85;3.85;;;;;;;;;;4959546;28;20069;-61
2022/12/31 12:40:05;;;;;;;6.38;4.38;;;;;;;;;;4944261;28;20083;-60
2022/12/31 12:42:34;;;;;;;2.15;1.27;;;;;;;;;;4959580;28;20054;-61
2022/12/31 12:45:14;;;;;;;1.80;1.33;;;;;;;;;;4974849;28;20054;-60
2022/12/31 12:47:47;;;;;;;3.60;1.20;;;;;;;;;;4959136;28;20058;-60
2022/12/31 12:50:23;;;;;;;1.77;0.95;;;;;;;;;;4990674;28;20113;-60
2022/12/31 12:53:16;;;;;;;3.33;1.20;;;;;;;;;;4974650;28;20057;-60
2022/12/31 12:56:04;;;;;;;2.08;1.33;;;;;;;;;;4958145;28;20552;-61
2022/12/31 12:58:46;;;;;;;3.05;1.00;;;;;;;;;;4942807;28;20057;-61
2022/12/31 13:01:42;;;;;;;3.92;1.00;;;;;;;;;;4991009;28;20046;-61
2022/12/31 13:04:24;;;;;;;2.55;0.90;;;;;;;;;;4942583;28;20198;-61
2022/12/31 13:07:08;;;;;;;3.03;1.23;;;;;;;;;;4990750;28;20050;-60
2022/12/31 13:10:05;;;;;;;5.70;2.13;;;;;;;;;;5070572;28;20055;-61
2022/12/31 13:12:43;;;;;;;2.17;1.23;;;;;;;;;;5092387;28;20048;-61
2022/12/31 13:15:35;;;;;;;1.50;0.90;;;;;;;;;;5063535;28;20407;-61
2022/12/31 13:18:14;;;;;;;2.33;1.15;;;;;;;;;;5092593;28;20040;-61
2022/12/31 13:20:55;;;;;;;4.00;1.05;;;;;;;;;;5092192;28;20499;-63
2022/12/31 13:23:38;;;;;;;3.30;0.98;;;;;;;;;;5039992;28;20059;-61
2022/12/31 13:26:21;;;;;;;3.20;0.80;;;;;;;;;;5069460;28;20067;-61
2022/12/31 13:28:52;;;;;;;2.58;1.13;;;;;;;;;;5020050;28;20064;-63
2022/12/31 13:31:35;;;;;;;2.63;0.90;;;;;;;;;;5069549;28;20397;-61
2022/12/31 13:34:17;;;;;;;3.00;0.93;;;;;;;;;;5037454;28;20450;-61
2022/12/31 13:36:49;;;;;;;2.03;0.80;;;;;;;;;;5036294;28;20432;-62
2022/12/31 13:39:35;;;;;;;1.55;0.80;;;;;;;;;;5019792;28;20516;-62
2022/12/31 13:42:25;;;;;;;2.17;0.90;;;;;;;;;;5069761;28;20559;-62
2022/12/31 13:45:10;;;;;;;3.80;1.50;;;;;;;;;;5069538;28;20096;-61
2022/12/31 13:47:48;;;;;;;3.10;0.90;;;;;;;;;;4976927;28;20045;-62
2022/12/31 13:50:18;;;;;;;2.55;0.70;;;;;;;;;;4960909;28;20065;-62
2022/12/31 13:53:14;;;;;;;2.30;0.80;;;;;;;;;;4976857;28;20065;-62
2022/12/31 13:55:50;;;;;;;;;;;;;;;;;;4952216;28;20055;-62
2022/12/31 13:58:41;;;;;;;4.80;1.05;;;;;;;;;;4970263;28;19921;-63
2022/12/31 14:01:44;;;;;;;1.48;1.00;;;;;;;;;;4891094;28;20607;-63
2022/12/31 14:04:27;;;;;;;1.13;0.55;;;;;;;;;;4951580;29;20058;-64
2022/12/31 14:07:21;;;;;;;2.65;0.70;;;;;;;;;;4919781;29;20066;-63
2022/12/31 14:09:57;;;;;;;0.98;0.70;;;;;;;;;;4936178;29;20047;-62
2022/12/31 14:12:48;;;;;;;1.23;0.73;;;;;;;;;;4919439;29;20427;-64
2022/12/31 14:15:36;;;;;;;1.95;0.60;;;;;;;;;;4919480;29;20055;-63
2022/12/31 14:18:15;;;;;;;2.75;0.70;;;;;;;;;;4923190;29;20058;-62
2022/12/31 14:20:46;;;;;;;;;;;;;;;;;;4923674;29;20063;-64
2022/12/31 14:23:57;;;;;;;4.32;0.70;;;;;;;;;;4922857;29;19933;-63
2022/12/31 14:26:35;;;;;;;0.90;0.60;;;;;;;;;;4915293;29;20072;-62
2022/12/31 14:29:25;;;;;;;1.10;0.60;;;;;;;;;;4916848;29;20060;-62
2022/12/31 14:32:04;;;;;;;3.92;1.10;;;;;;;;;;4919696;29;20048;-62
2022/12/31 14:34:43;;;;;;;2.40;0.90;;;;;;;;;;4903883;29;20070;-62
2022/12/31 14:37:35;;;;;;;2.95;0.75;;;;;;;;;;4954582;29;20055;-62
2022/12/31 14:41:01;;;;;;;2.60;0.73;;;;;;;;;;4986739;28;20192;-62
2022/12/31 14:43:47;;;;;;;4.65;0.70;;;;;;;;;;4993293;28;20055;-62
2022/12/31 14:46:31;;;;;;;2.28;0.80;;;;;;;;;;4976951;28;20047;-62
2022/12/31 14:49:21;;;;;;;;;;;;;;;;;;4993658;28;20065;-62
2022/12/31 14:51:51;;;;;;;4.63;1.17;;;;;;;;;;4976820;28;19922;-62
2022/12/31 14:54:33;;;;;;;1.30;0.80;;;;;;;;;;4993313;28;20050;-62
2022/12/31 14:57:36;;;;;;;1.15;0.80;;;;;;;;;;4993212;28;20054;-61
2022/12/31 15:00:38;;;;;;;1.73;0.68;;;;;;;;;;4992979;28;20058;-62
2022/12/31 15:03:14;;;;;;;1.58;0.90;;;;;;;;;;5001683;28;20896;-63
2022/12/31 15:06:00;;;;;;;1.67;0.77;;;;;;;;;;5052287;28;20048;-62
2022/12/31 15:08:39;;;;;;;2.08;1.42;;;;;;;;;;5018663;28;20516;-63
2022/12/31 15:11:41;;;;;;;3.05;1.00;;;;;;;;;;5052344;28;20041;-63
2022/12/31 15:14:50;;;;;;;1.35;0.75;;;;;;;;;;5003779;28;20054;-62
2022/12/31 15:17:25;;;;;;;2.60;0.98;;;;;;;;;;4963852;28;20046;-62
2022/12/31 15:20:03;;;;;;;1.48;0.75;;;;;;;;;;5012396;28;20055;-62
2022/12/31 15:22:49;;;;;;;1.45;0.75;;;;;;;;;;5012724;28;20052;-62
2022/12/31 15:25:25;;;;;;;2.45;1.00;;;;;;;;;;5012400;28;20064;-61
2022/12/31 15:27:57;;;;;;;3.58;1.30;;;;;;;;;;5010814;28;20037;-62
2022/12/31 15:30:43;;;;;;;1.75;0.82;;;;;;;;;;5012195;28;20530;-61
2022/12/31 15:33:28;;;;;;;2.38;0.90;;;;;;;;;;5012147;28;20041;-61
2022/12/31 15:36:17;;;;;;;3.10;1.00;;;;;;;;;;5011976;28;20593;-62
2022/12/31 15:38:49;;;;;;;1.92;1.17;;;;;;;;;;4979380;28;20054;-61
2022/12/31 15:41:19;;;;;;;1.30;0.80;;;;;;;;;;5012011;28;20046;-61
2022/12/31 15:43:52;;;;;;;1.48;1.00;;;;;;;;;;5011633;28;20068;-61
2022/12/31 15:46:28;;;;;;;2.33;1.10;;;;;;;;;;5011830;28;20228;-61
2022/12/31 15:49:03;;;;;;;4.57;1.90;;;;;;;;;;5011725;28;20050;-61
2022/12/31 15:51:54;;;;;;;2.88;1.20;;;;;;;;;;5088492;28;20056;-61
2022/12/31 15:54:35;;;;;;;5.07;2.45;;;;;;;;;;5041855;28;20056;-61
2022/12/31 15:57:11;;;;;;;16.00;5.03;;;;;;;;;;5058479;28;20055;-61
2022/12/31 15:59:40;;;;;;;3.35;2.00;;;;;;;;;;5076196;28;20387;-62
2022/12/31 16:02:41;;;;;;;2.05;1.13;;;;;;;;;;5031414;28;20057;-61
2022/12/31 16:05:24;;;;;;;8.73;3.22;;;;;;;;;;5011283;28;20058;-61
2022/12/31 16:07:56;;;;;;;6.28;3.13;;;;;;;;;;5011431;28;20057;-62